Ohshima Kazumaru — JD2908 — position and weather

sailwx.info

Track history (hours):
 
Tides and Currents Weather Stations Pressure Air Temp Water Temp Dewpoint Dewpoint Depression Visibility Wind Speed Wind Dir Waves Ship Positions

Ohshima Kazumaru

Last reported at 2018-Apr-22 15:14 UTC. Time now 2018-Apr-23 02:09 UTC.
Position N 33°52' E 135°02'.

Length 69 m; draft 4 m.

Type: Cargo ship. MMSI: 431000925.

Date/timePositionNaut miles runAvg speedWind from/ knotsBaromVisibWave heightAir tempDewpointWater temp
2018-Apr-22 15:14N 33°52' E 135°02'511.4
2018-Apr-22 14:45N 33°56' E 134°57'1011.5
2018-Apr-22 13:51N 34°04' E 134°49'411.2
2018-Apr-22 13:28N 34°07' E 134°46'610.9
2018-Apr-22 12:53N 34°12' E 134°41'4 9.9
2018-Apr-22 12:30N 34°15' E 134°38'611.6
2018-Apr-22 12:00N 34°17' E 134°32'611.9
2018-Apr-22 11:30N 34°20' E 134°25'611.9
2018-Apr-22 11:00N 34°22' E 134°19'612.4
2018-Apr-22 10:30N 34°24' E 134°12'712.9
2018-Apr-22 09:59N 34°26' E 134°04'913.3
2018-Apr-22 09:20N 34°24' E 133°54'10 0.2
2018-Apr-20 17:29N 34°27' E 134°05'612.2
2018-Apr-20 16:59N 34°25' E 134°12'612.2
2018-Apr-20 16:31N 34°23' E 134°19'612.2
2018-Apr-20 16:00N 34°21' E 134°26'612.3
2018-Apr-20 15:30N 34°18' E 134°32'713.1
2018-Apr-20 15:00N 34°15' E 134°39'713.0
2018-Apr-20 14:29N 34°10' E 134°44'612.4
2018-Apr-20 14:00N 34°05' E 134°49'612.5
2018-Apr-20 13:30N 34°00' E 134°54'612.5
2018-Apr-20 13:00N 33°56' E 134°59'712.9
2018-Apr-20 12:30N 33°51' E 135°04'56 9.4
2018-Apr-20 06:31N 33°42' E 136°11'8012.0
2018-Apr-19 23:51N 34°23' E 137°33'811.7
2018-Apr-19 23:10N 34°26' E 137°42'1211.6
2018-Apr-19 22:07N 34°30' E 137°56'2311.5
2018-Apr-19 20:09N 34°33' E 138°24'211.3
2018-Apr-19 19:58N 34°33' E 138°26'511.5
2018-Apr-19 19:31N 34°34' E 138°32'811.6
2018-Apr-19 18:51N 34°34' E 138°42'511.5
2018-Apr-19 18:28N 34°34' E 138°47'511.2
2018-Apr-19 18:00N 34°35' E 138°53'511.1
2018-Apr-19 17:30N 34°38' E 138°59'711.8
2018-Apr-19 16:57N 34°43' E 139°04'511.6
2018-Apr-19 16:30N 34°47' E 139°08'611.1
2018-Apr-19 15:59N 34°51' E 139°13'611.9
2018-Apr-19 15:30N 34°55' E 139°18'711.9
2018-Apr-19 14:55N 34°59' E 139°25'511.4
2018-Apr-19 14:29N 35°02' E 139°30'611.8
2018-Apr-19 14:00N 35°05' E 139°36'611.2
2018-Apr-19 13:30N 35°07' E 139°42'611.4
2018-Apr-19 13:00N 35°12' E 139°46'611.5
2018-Apr-19 12:30N 35°18' E 139°44'611.7
2018-Apr-19 12:01N 35°23' E 139°42'611.6
2018-Apr-19 11:30N 35°28' E 139°47'611.4
2018-Apr-19 11:00N 35°33' E 139°50'611.3
2018-Apr-19 10:30N 35°37' E 139°46'1 2.4
2018-Apr-19 10:00N 35°38' E 139°46'0 0.0
2018-Apr-19 09:31N 35°38' E 139°46'0 0.0
2018-Apr-19 09:00N 35°38' E 139°46'0 0.0
2018-Apr-19 08:30N 35°38' E 139°46'0 0.0
2018-Apr-19 08:00N 35°38' E 139°46'0 0.0
2018-Apr-19 07:30N 35°38' E 139°46'0 0.0
2018-Apr-19 07:00N 35°38' E 139°46'0 0.0
2018-Apr-19 06:30N 35°38' E 139°46'0 0.0
2018-Apr-19 06:00N 35°38' E 139°46'0 0.0
2018-Apr-19 05:30N 35°38' E 139°46'0 0.0
2018-Apr-19 05:00N 35°38' E 139°46'0 0.0
2018-Apr-19 04:30N 35°38' E 139°46'0 0.0
2018-Apr-19 04:00N 35°38' E 139°46'0 0.0
2018-Apr-19 03:30N 35°38' E 139°46'0 0.0
2018-Apr-19 02:56N 35°38' E 139°46'0 0.0
2018-Apr-19 02:26N 35°38' E 139°46'0 0.0
2018-Apr-19 02:00N 35°38' E 139°46'0 0.0
2018-Apr-19 01:29N 35°38' E 139°46'0 0.0
2018-Apr-19 01:00N 35°38' E 139°46'0 0.0
2018-Apr-19 00:30N 35°38' E 139°46'0 0.0
2018-Apr-19 00:00N 35°38' E 139°46'0 0.0
2018-Apr-18 23:30N 35°38' E 139°46'0 0.0
2018-Apr-18 23:00N 35°38' E 139°46'0 0.1
2018-Apr-18 22:30N 35°38' E 139°46'0 0.1
2018-Apr-18 22:00N 35°38' E 139°46'0 0.0
2018-Apr-18 21:30N 35°38' E 139°46'0 0.0
2018-Apr-18 21:00N 35°38' E 139°46'0 0.0
2018-Apr-18 20:30N 35°38' E 139°46'0 0.1
2018-Apr-18 20:00N 35°38' E 139°46'0 0.0
2018-Apr-18 19:30N 35°38' E 139°46'0 0.0
2018-Apr-18 19:00N 35°38' E 139°46'0 0.1
2018-Apr-18 18:30N 35°38' E 139°46'0 0.0
2018-Apr-18 18:00N 35°38' E 139°46'0 0.0
2018-Apr-18 17:30N 35°38' E 139°46'0 0.0
2018-Apr-18 17:00N 35°38' E 139°46'0 0.0
2018-Apr-18 16:30N 35°38' E 139°46'0 0.0
2018-Apr-18 16:00N 35°38' E 139°46'0 0.1
2018-Apr-18 15:28N 35°38' E 139°46'0 0.0
2018-Apr-18 15:00N 35°38' E 139°46'0 0.1
2018-Apr-18 14:29N 35°38' E 139°46'0 0.1
2018-Apr-18 14:00N 35°38' E 139°46'0 0.1
2018-Apr-18 13:30N 35°38' E 139°46'0 0.1
2018-Apr-18 13:00N 35°38' E 139°46'0 0.0
2018-Apr-18 12:30N 35°38' E 139°46'0 0.1
2018-Apr-18 12:00N 35°38' E 139°46'0 0.1
2018-Apr-18 11:30N 35°38' E 139°46'0 0.1
2018-Apr-18 11:00N 35°38' E 139°46'0 0.0
2018-Apr-18 10:30N 35°38' E 139°46'0 0.0
2018-Apr-18 10:00N 35°38' E 139°46'0 0.0
2018-Apr-18 09:30N 35°38' E 139°46'0 0.1
2018-Apr-18 09:00N 35°38' E 139°46'0 0.1
2018-Apr-18 08:30N 35°38' E 139°46'0 0.1
2018-Apr-18 08:00N 35°38' E 139°46'0 0.1
2018-Apr-18 07:30N 35°38' E 139°46'0 0.0
2018-Apr-18 07:00N 35°38' E 139°46'0 0.0
2018-Apr-18 06:30N 35°38' E 139°46'0 0.0
2018-Apr-18 06:00N 35°38' E 139°46'0 0.0
2018-Apr-18 05:16N 35°38' E 139°46'0 0.0
2018-Apr-18 04:07N 35°38' E 139°46'0 0.0
2018-Apr-18 03:57N 35°38' E 139°46'0 0.0
2018-Apr-18 03:22N 35°38' E 139°46'0 0.0
2018-Apr-18 01:05N 35°38' E 139°46'0 0.0
2018-Apr-18 00:57N 35°38' E 139°46'0 0.1
2018-Apr-18 00:30N 35°38' E 139°46'0 0.1
2018-Apr-18 00:00N 35°38' E 139°46'0 0.1
2018-Apr-17 23:30N 35°38' E 139°46'0 0.1
2018-Apr-17 23:00N 35°38' E 139°46'0 0.1
2018-Apr-17 22:30N 35°38' E 139°46'1 1.1
2018-Apr-17 22:00N 35°38' E 139°46'5 9.3
2018-Apr-17 21:31N 35°34' E 139°49'1 1.1
2018-Apr-17 21:00N 35°34' E 139°50'0 0.0
2018-Apr-17 20:30N 35°34' E 139°50'0 0.0
2018-Apr-17 19:56N 35°34' E 139°50'0 0.0
2018-Apr-17 19:30N 35°34' E 139°50'0 0.0
2018-Apr-17 19:00N 35°34' E 139°50'5 8.8
2018-Apr-17 18:29N 35°30' E 139°52'611.6
2018-Apr-17 18:00N 35°26' E 139°48'611.8
2018-Apr-17 17:30N 35°20' E 139°45'611.6
2018-Apr-17 17:00N 35°15' E 139°47'611.5
2018-Apr-17 16:30N 35°09' E 139°46'611.2
2018-Apr-17 16:00N 35°04' E 139°42'611.5
2018-Apr-17 15:31N 35°01' E 139°37'711.3
2018-Apr-17 14:54N 34°57' E 139°30'2411.2
2018-Apr-17 12:45N 34°42' E 139°07'310.6
2018-Apr-17 12:30N 34°40' E 139°04'810.5
2018-Apr-17 11:46N 34°36' E 138°57'1110.2
2018-Apr-17 10:38N 34°34' E 138°43'210.6
2018-Apr-17 10:29N 34°34' E 138°41'2010.3
2018-Apr-17 08:33N 34°33' E 138°17'2 9.8
2018-Apr-17 08:18N 34°33' E 138°14'3 9.4
2018-Apr-17 08:00N 34°33' E 138°11'161 9.5
2018-Apr-16 15:06N 33°50' E 135°03'212.9
2018-Apr-16 14:58N 33°51' E 135°02'613.0
2018-Apr-16 14:29N 33°56' E 134°57'1012.6
2018-Apr-16 13:41N 34°03' E 134°49'312.7
2018-Apr-16 13:28N 34°06' E 134°47'812.5
2018-Apr-16 12:49N 34°12' E 134°41'512.4
2018-Apr-16 12:26N 34°15' E 134°37'512.2
2018-Apr-16 12:00N 34°17' E 134°31'611.9
2018-Apr-16 11:30N 34°20' E 134°24'  
2018-Apr-12 18:44N 34°23' E 134°16'312.4
2018-Apr-12 18:30N 34°22' E 134°19'612.2
2018-Apr-12 18:00N 34°20' E 134°26'712.1
2018-Apr-12 17:28N 34°17' E 134°34'511.6
2018-Apr-12 17:00N 34°14' E 134°39'611.5
2018-Apr-12 16:27N 34°09' E 134°43'511.4
2018-Apr-12 16:00N 34°05' E 134°47'611.6
2018-Apr-12 15:30N 34°01' E 134°52'  
Track history (hours):
 
Tides and Currents Weather Stations Pressure Air Temp Water Temp Dewpoint Dewpoint Depression Visibility Wind Speed Wind Dir Waves Ship Positions

Ohshima Kazumaru

Last reported at 2018-Apr-22 15:14 UTC. Time now 2018-Apr-23 02:09 UTC.
Position N 33°52' E 135°02'.

Length 69 m; draft 4 m.

Type: Cargo ship. MMSI: 431000925.

Date/timePositionNaut miles runAvg speedWind from/ knotsBaromVisibWave heightAir tempDewpointWater temp
2018-Apr-22 15:14N 33°52' E 135°02'511.4
2018-Apr-22 14:45N 33°56' E 134°57'1011.5
2018-Apr-22 13:51N 34°04' E 134°49'411.2
2018-Apr-22 13:28N 34°07' E 134°46'610.9
2018-Apr-22 12:53N 34°12' E 134°41'4 9.9
2018-Apr-22 12:30N 34°15' E 134°38'611.6
2018-Apr-22 12:00N 34°17' E 134°32'611.9
2018-Apr-22 11:30N 34°20' E 134°25'611.9
2018-Apr-22 11:00N 34°22' E 134°19'612.4
2018-Apr-22 10:30N 34°24' E 134°12'712.9
2018-Apr-22 09:59N 34°26' E 134°04'913.3
2018-Apr-22 09:20N 34°24' E 133°54'10 0.2
2018-Apr-20 17:29N 34°27' E 134°05'612.2
2018-Apr-20 16:59N 34°25' E 134°12'612.2
2018-Apr-20 16:31N 34°23' E 134°19'612.2
2018-Apr-20 16:00N 34°21' E 134°26'612.3
2018-Apr-20 15:30N 34°18' E 134°32'713.1
2018-Apr-20 15:00N 34°15' E 134°39'713.0
2018-Apr-20 14:29N 34°10' E 134°44'612.4
2018-Apr-20 14:00N 34°05' E 134°49'612.5
2018-Apr-20 13:30N 34°00' E 134°54'612.5
2018-Apr-20 13:00N 33°56' E 134°59'712.9
2018-Apr-20 12:30N 33°51' E 135°04'56 9.4
2018-Apr-20 06:31N 33°42' E 136°11'8012.0
2018-Apr-19 23:51N 34°23' E 137°33'811.7
2018-Apr-19 23:10N 34°26' E 137°42'1211.6
2018-Apr-19 22:07N 34°30' E 137°56'2311.5
2018-Apr-19 20:09N 34°33' E 138°24'211.3
2018-Apr-19 19:58N 34°33' E 138°26'511.5
2018-Apr-19 19:31N 34°34' E 138°32'811.6
2018-Apr-19 18:51N 34°34' E 138°42'511.5
2018-Apr-19 18:28N 34°34' E 138°47'511.2
2018-Apr-19 18:00N 34°35' E 138°53'511.1
2018-Apr-19 17:30N 34°38' E 138°59'711.8
2018-Apr-19 16:57N 34°43' E 139°04'511.6
2018-Apr-19 16:30N 34°47' E 139°08'611.1
2018-Apr-19 15:59N 34°51' E 139°13'611.9
2018-Apr-19 15:30N 34°55' E 139°18'711.9
2018-Apr-19 14:55N 34°59' E 139°25'511.4
2018-Apr-19 14:29N 35°02' E 139°30'611.8
2018-Apr-19 14:00N 35°05' E 139°36'611.2
2018-Apr-19 13:30N 35°07' E 139°42'611.4
2018-Apr-19 13:00N 35°12' E 139°46'611.5
2018-Apr-19 12:30N 35°18' E 139°44'611.7
2018-Apr-19 12:01N 35°23' E 139°42'611.6
2018-Apr-19 11:30N 35°28' E 139°47'611.4
2018-Apr-19 11:00N 35°33' E 139°50'611.3
2018-Apr-19 10:30N 35°37' E 139°46'1 2.4
2018-Apr-19 10:00N 35°38' E 139°46'0 0.0
2018-Apr-19 09:31N 35°38' E 139°46'0 0.0
2018-Apr-19 09:00N 35°38' E 139°46'0 0.0
2018-Apr-19 08:30N 35°38' E 139°46'0 0.0
2018-Apr-19 08:00N 35°38' E 139°46'0 0.0
2018-Apr-19 07:30N 35°38' E 139°46'0 0.0
2018-Apr-19 07:00N 35°38' E 139°46'0 0.0
2018-Apr-19 06:30N 35°38' E 139°46'0 0.0
2018-Apr-19 06:00N 35°38' E 139°46'0 0.0
2018-Apr-19 05:30N 35°38' E 139°46'0 0.0
2018-Apr-19 05:00N 35°38' E 139°46'0 0.0
2018-Apr-19 04:30N 35°38' E 139°46'0 0.0
2018-Apr-19 04:00N 35°38' E 139°46'0 0.0
2018-Apr-19 03:30N 35°38' E 139°46'0 0.0
2018-Apr-19 02:56N 35°38' E 139°46'0 0.0
2018-Apr-19 02:26N 35°38' E 139°46'0 0.0
2018-Apr-19 02:00N 35°38' E 139°46'0 0.0
2018-Apr-19 01:29N 35°38' E 139°46'0 0.0
2018-Apr-19 01:00N 35°38' E 139°46'0 0.0
2018-Apr-19 00:30N 35°38' E 139°46'0 0.0
2018-Apr-19 00:00N 35°38' E 139°46'0 0.0
2018-Apr-18 23:30N 35°38' E 139°46'0 0.0
2018-Apr-18 23:00N 35°38' E 139°46'0 0.1
2018-Apr-18 22:30N 35°38' E 139°46'0 0.1
2018-Apr-18 22:00N 35°38' E 139°46'0 0.0
2018-Apr-18 21:30N 35°38' E 139°46'0 0.0
2018-Apr-18 21:00N 35°38' E 139°46'0 0.0
2018-Apr-18 20:30N 35°38' E 139°46'0 0.1
2018-Apr-18 20:00N 35°38' E 139°46'0 0.0
2018-Apr-18 19:30N 35°38' E 139°46'0 0.0
2018-Apr-18 19:00N 35°38' E 139°46'0 0.1
2018-Apr-18 18:30N 35°38' E 139°46'0 0.0
2018-Apr-18 18:00N 35°38' E 139°46'0 0.0
2018-Apr-18 17:30N 35°38' E 139°46'0 0.0
2018-Apr-18 17:00N 35°38' E 139°46'0 0.0
2018-Apr-18 16:30N 35°38' E 139°46'0 0.0
2018-Apr-18 16:00N 35°38' E 139°46'0 0.1
2018-Apr-18 15:28N 35°38' E 139°46'0 0.0
2018-Apr-18 15:00N 35°38' E 139°46'0 0.1
2018-Apr-18 14:29N 35°38' E 139°46'0 0.1
2018-Apr-18 14:00N 35°38' E 139°46'0 0.1
2018-Apr-18 13:30N 35°38' E 139°46'0 0.1
2018-Apr-18 13:00N 35°38' E 139°46'0 0.0
2018-Apr-18 12:30N 35°38' E 139°46'0 0.1
2018-Apr-18 12:00N 35°38' E 139°46'0 0.1
2018-Apr-18 11:30N 35°38' E 139°46'0 0.1
2018-Apr-18 11:00N 35°38' E 139°46'0 0.0
2018-Apr-18 10:30N 35°38' E 139°46'0 0.0
2018-Apr-18 10:00N 35°38' E 139°46'0 0.0
2018-Apr-18 09:30N 35°38' E 139°46'0 0.1
2018-Apr-18 09:00N 35°38' E 139°46'0 0.1
2018-Apr-18 08:30N 35°38' E 139°46'0 0.1
2018-Apr-18 08:00N 35°38' E 139°46'0 0.1
2018-Apr-18 07:30N 35°38' E 139°46'0 0.0
2018-Apr-18 07:00N 35°38' E 139°46'0 0.0
2018-Apr-18 06:30N 35°38' E 139°46'0 0.0
2018-Apr-18 06:00N 35°38' E 139°46'0 0.0
2018-Apr-18 05:16N 35°38' E 139°46'0 0.0
2018-Apr-18 04:07N 35°38' E 139°46'0 0.0
2018-Apr-18 03:57N 35°38' E 139°46'0 0.0
2018-Apr-18 03:22N 35°38' E 139°46'0 0.0
2018-Apr-18 01:05N 35°38' E 139°46'0 0.0
2018-Apr-18 00:57N 35°38' E 139°46'0 0.1
2018-Apr-18 00:30N 35°38' E 139°46'0 0.1
2018-Apr-18 00:00N 35°38' E 139°46'0 0.1
2018-Apr-17 23:30N 35°38' E 139°46'0 0.1
2018-Apr-17 23:00N 35°38' E 139°46'0 0.1
2018-Apr-17 22:30N 35°38' E 139°46'1 1.1
2018-Apr-17 22:00N 35°38' E 139°46'5 9.3
2018-Apr-17 21:31N 35°34' E 139°49'1 1.1
2018-Apr-17 21:00N 35°34' E 139°50'0 0.0
2018-Apr-17 20:30N 35°34' E 139°50'0 0.0
2018-Apr-17 19:56N 35°34' E 139°50'0 0.0
2018-Apr-17 19:30N 35°34' E 139°50'0 0.0
2018-Apr-17 19:00N 35°34' E 139°50'5 8.8
2018-Apr-17 18:29N 35°30' E 139°52'611.6
2018-Apr-17 18:00N 35°26' E 139°48'611.8
2018-Apr-17 17:30N 35°20' E 139°45'611.6
2018-Apr-17 17:00N 35°15' E 139°47'611.5
2018-Apr-17 16:30N 35°09' E 139°46'611.2
2018-Apr-17 16:00N 35°04' E 139°42'611.5
2018-Apr-17 15:31N 35°01' E 139°37'711.3
2018-Apr-17 14:54N 34°57' E 139°30'2411.2
2018-Apr-17 12:45N 34°42' E 139°07'310.6
2018-Apr-17 12:30N 34°40' E 139°04'810.5
2018-Apr-17 11:46N 34°36' E 138°57'1110.2
2018-Apr-17 10:38N 34°34' E 138°43'210.6
2018-Apr-17 10:29N 34°34' E 138°41'2010.3
2018-Apr-17 08:33N 34°33' E 138°17'2 9.8
2018-Apr-17 08:18N 34°33' E 138°14'3 9.4
2018-Apr-17 08:00N 34°33' E 138°11'161 9.5
2018-Apr-16 15:06N 33°50' E 135°03'212.9
2018-Apr-16 14:58N 33°51' E 135°02'613.0
2018-Apr-16 14:29N 33°56' E 134°57'1012.6
2018-Apr-16 13:41N 34°03' E 134°49'312.7
2018-Apr-16 13:28N 34°06' E 134°47'812.5
2018-Apr-16 12:49N 34°12' E 134°41'512.4
2018-Apr-16 12:26N 34°15' E 134°37'512.2
2018-Apr-16 12:00N 34°17' E 134°31'611.9
2018-Apr-16 11:30N 34°20' E 134°24'  
2018-Apr-12 18:44N 34°23' E 134°16'312.4
2018-Apr-12 18:30N 34°22' E 134°19'612.2
2018-Apr-12 18:00N 34°20' E 134°26'712.1
2018-Apr-12 17:28N 34°17' E 134°34'511.6
2018-Apr-12 17:00N 34°14' E 134°39'611.5
2018-Apr-12 16:27N 34°09' E 134°43'511.4
2018-Apr-12 16:00N 34°05' E 134°47'611.6
2018-Apr-12 15:30N 34°01' E 134°52'  

Dump ship's entire track history